Terminal Aerodrome Forecast
Issued by NWS Sterling, VA

Current Version | Previous Version | Text Only | Print | Product List | Glossary On
Versions: 1 2 3 4 5 6 7 8 9 10 11 12 13 14 15 16 17 18 19 20 21 22 23 24 25 26 27 28 29 30
000
FTUS41 KLWX 011502 AAA
TAFBWI
TAF AMD
KBWI 011502Z 0115/0218 26008KT P6SM SKC
     FM011600 25009KT P6SM SCT050
     FM011900 25009KT P6SM BKN050
     FM012300 25005KT P6SM SCT250
     FM020200 00000KT P6SM SCT200=

USA.gov is the U.S. government's official web portal to all federal, state and local government web resources and services.